Rochester, NY

6:11 PM EDT on July 31, 2015 (GMT -0400)
Spencerport/North Chili | | Change Station
CLOSE
Current Station
Personal Weather Station
Location: Rochester, NY
Elevation: 595 ft
Nearby Weather Stations

Elev 595 ft 43.12 °N, 77.73 °W | Updated 3 minutes ago

Scattered Clouds
Scattered Clouds
80.2 °F
Feels Like 82 °F
N
2.0
Wind Variable Wind from WSW
Gusts 10.0 mph

Today
High -- | Low -- °F
--% Chance of Precip.
Yesterday
High -- | Low -- °F
Precip. -- in
6:00 AM 8:33 PM
Full, 100% visible
Pressure 29.77 in
Visibility 10.0 miles
Clouds Few 5000 ft
Few 11000 ft
Scattered Clouds 20000 ft
Heat Index 82 °F
Dew Point 64 °F
Humidity 58%
Rainfall 0.12 in
Snow Depth Not available.
UV 2 out of 12
Pollen 7.90 out of 12
Air Quality Not available.
Flu Activity Not available.
METAR KROC 312154Z 23007KT 10SM FEW050 FEW110 SCT200 28/16 A2977 RMK AO2 SLP079 TCU DSNT E T02780161

More Conditions Fewer Conditions

Pressure 29.77 in
Visibility 10.0 miles
Clouds Few 5000 ft
Few 11000 ft
Scattered Clouds 20000 ft
Heat Index 82 °F
Dew Point 64 °F
Humidity 58%
Rainfall 0.12 in
Snow Depth Not available.
UV 2 out of 12
Pollen 7.90 out of 12
Air Quality Not available.
Flu Activity Not available.
METAR KROC 312154Z 23007KT 10SM FEW050 FEW110 SCT200 28/16 A2977 RMK AO2 SLP079 TCU DSNT E T02780161

More Conditions Fewer Conditions

10-Day Weather Forecast

×

Almanac

Astronomy

Jul. 31, 2015 Rise Set
Actual Time
Civil Twilight
Nautical Twilight
Astronomical Twilight
Moon
Length of Visible Light
Length of Day
Tomorrow will be .
, % of the Moon is Illuminated

Today's Extremes

State Highs State Lows

Community

WunderPhotos

Upload Photos

1,842,762 photos uploaded!

WunderBlogs® & News

Nearby

Air Quality

  Air Quality AQ Index Pollutant
Not available.

Snow Depth

Station Depth Elevation

Earthquake Activity

City Distance Mag. Time & Date
Minimum magnitude displayed is 2.5.

Coastal Water Temperatures

Place Temperature

Stations

Nearby Weather Stations

Station Location Temp. Windchill Dew Point Humidity Wind Precip. Elev Updated Type